createdAt,value
2018-01-22T00:01:26.469Z,6.47
2018-01-22T00:03:55.509Z,5.47
2018-01-22T00:06:24.943Z,5.97
2018-01-22T00:08:53.917Z,4.03
2018-01-22T00:11:22.787Z,6.50
2018-01-22T00:13:51.661Z,6.17
2018-01-22T00:16:20.511Z,5.60
2018-01-22T00:18:49.413Z,7.30
2018-01-22T00:21:18.467Z,7.57
2018-01-22T00:23:47.309Z,6.57
2018-01-22T00:26:16.201Z,7.17
2018-01-22T00:28:45.077Z,7.00
2018-01-22T00:31:13.998Z,6.80
2018-01-22T00:33:42.864Z,7.03
2018-01-22T00:36:11.693Z,7.47
2018-01-22T00:38:40.536Z,6.73
2018-01-22T00:41:09.417Z,7.60
2018-01-22T00:43:38.262Z,7.10
2018-01-22T00:46:07.117Z,7.37
2018-01-22T00:48:35.999Z,7.97
2018-01-22T00:51:04.853Z,6.60
2018-01-22T00:53:33.705Z,6.93
2018-01-22T00:56:02.575Z,7.10
2018-01-22T00:58:31.423Z,5.30
2018-01-22T01:01:01.157Z,7.70
2018-01-22T01:03:30.027Z,7.47
2018-01-22T01:05:58.899Z,8.13
2018-01-22T01:08:27.839Z,7.70
2018-01-22T01:10:56.783Z,7.80
2018-01-22T01:13:25.633Z,7.23
2018-01-22T01:15:54.478Z,7.80
2018-01-22T01:18:23.330Z,7.87
2018-01-22T01:20:52.159Z,6.77
2018-01-22T01:23:21.013Z,8.40
2018-01-22T01:25:49.909Z,7.33
2018-01-22T01:28:18.788Z,7.50
2018-01-22T01:30:47.627Z,7.60
2018-01-22T01:33:16.531Z,7.47
2018-01-22T01:35:45.367Z,7.90
2018-01-22T01:38:14.203Z,6.97
2018-01-22T01:40:43.124Z,7.27
2018-01-22T01:43:11.987Z,7.23
2018-01-22T01:45:40.823Z,6.80
2018-01-22T01:48:09.685Z,7.60
2018-01-22T01:50:38.531Z,7.70
2018-01-22T01:53:07.392Z,7.30
2018-01-22T01:55:36.239Z,7.77
2018-01-22T01:58:05.087Z,8.00
2018-01-22T02:00:34.003Z,7.90
2018-01-22T02:03:02.855Z,8.53
2018-01-22T02:05:31.695Z,9.47
2018-01-22T02:08:00.543Z,8.87
2018-01-22T02:10:30.323Z,8.90
2018-01-22T02:12:59.801Z,7.70
2018-01-22T02:15:28.651Z,7.87
2018-01-22T02:17:57.493Z,7.10
2018-01-22T02:20:26.352Z,6.90
2018-01-22T02:22:55.178Z,6.60
2018-01-22T02:25:24.653Z,7.30
2018-01-22T02:27:53.531Z,6.40
2018-01-22T02:30:22.379Z,6.87
2018-01-22T02:32:51.223Z,7.07
2018-01-22T02:35:20.083Z,6.77
2018-01-22T02:37:48.925Z,6.00
2018-01-22T02:40:17.779Z,6.20
2018-01-22T02:42:46.781Z,5.70
2018-01-22T02:45:15.621Z,6.23
2018-01-22T02:47:44.466Z,6.07
2018-01-22T02:50:13.321Z,5.73
2018-01-22T02:52:42.167Z,5.83
2018-01-22T02:55:11.359Z,5.80
2018-01-22T02:57:40.252Z,5.83
2018-01-22T03:00:09.117Z,5.50
2018-01-22T03:02:37.975Z,5.27
2018-01-22T03:05:06.863Z,4.53
2018-01-22T03:07:35.721Z,5.33
2018-01-22T03:10:04.567Z,4.90
2018-01-22T03:12:33.447Z,4.83
2018-01-22T03:15:02.331Z,5.10
2018-01-22T03:17:31.231Z,5.30
2018-01-22T03:20:00.133Z,5.23
2018-01-22T03:22:28.999Z,5.00
2018-01-22T03:24:57.865Z,5.37
2018-01-22T03:27:26.798Z,5.03
2018-01-22T03:29:55.641Z,5.37
2018-01-22T03:32:25.145Z,5.00
2018-01-22T03:34:54.036Z,5.07
2018-01-22T03:37:22.905Z,6.10
2018-01-22T03:39:51.763Z,5.70
2018-01-22T03:42:20.603Z,5.73
2018-01-22T03:44:49.505Z,5.30
2018-01-22T03:47:18.871Z,5.67
2018-01-22T03:49:47.711Z,5.97
2018-01-22T03:52:16.587Z,5.87
2018-01-22T03:54:45.439Z,6.20
2018-01-22T03:57:15.023Z,6.33
2018-01-22T03:59:43.888Z,5.87
2018-01-22T04:02:13.535Z,6.30
2018-01-22T04:04:42.375Z,6.47
2018-01-22T04:07:17.099Z,6.50
2018-01-22T04:09:45.935Z,7.90
2018-01-22T04:12:15.613Z,8.27
2018-01-22T04:14:44.493Z,20.00
2018-01-22T04:17:13.567Z,9.10
2018-01-22T04:19:42.415Z,10.50
2018-01-22T04:22:11.343Z,10.13
2018-01-22T04:24:40.179Z,10.10
2018-01-22T04:27:09.045Z,10.70
2018-01-22T04:29:37.933Z,11.00
2018-01-22T04:32:06.776Z,10.40
2018-01-22T04:34:35.607Z,9.30
2018-01-22T04:37:04.537Z,10.70
2018-01-22T04:39:33.375Z,9.50
2018-01-22T04:42:02.208Z,10.23
2018-01-22T04:44:31.110Z,9.47
2018-01-22T04:46:59.939Z,9.73
2018-01-22T04:49:28.791Z,12.37
2018-01-22T04:51:57.681Z,12.10
2018-01-22T04:54:27.240Z,10.50
2018-01-22T04:56:56.123Z,10.77
2018-01-22T04:59:25.023Z,11.10
2018-01-22T05:01:53.914Z,11.50
2018-01-22T05:04:22.803Z,11.60
2018-01-22T05:06:52.547Z,11.87
2018-01-22T05:09:21.450Z,11.47
2018-01-22T05:11:50.291Z,10.60
2018-01-22T05:14:19.297Z,12.17
2018-01-22T05:16:48.171Z,12.20
2018-01-22T05:19:17.919Z,13.73
2018-01-22T05:21:46.796Z,13.90
2018-01-22T05:24:15.647Z,14.13
2018-01-22T05:26:44.521Z,14.20
2018-01-22T05:29:13.521Z,14.10
2018-01-22T05:31:42.371Z,14.73
2018-01-22T05:34:11.416Z,16.00
2018-01-22T05:36:40.519Z,16.83
2018-01-22T05:39:09.365Z,15.17
2018-01-22T05:41:38.207Z,16.67
2018-01-22T05:44:07.124Z,17.70
2018-01-22T05:46:36.794Z,18.23
2018-01-22T05:49:05.689Z,17.73
2018-01-22T05:51:35.182Z,17.67
2018-01-22T05:54:04.025Z,18.10
2018-01-22T05:56:34.634Z,18.47
2018-01-22T05:59:03.499Z,18.07
2018-01-22T06:01:32.339Z,17.67
2018-01-22T06:04:01.310Z,18.63
2018-01-22T06:06:30.362Z,17.43
2018-01-22T06:08:59.360Z,16.83
2018-01-22T06:11:30.241Z,18.63
2018-01-22T06:13:59.667Z,19.27
2018-01-22T06:16:28.506Z,18.03
2018-01-22T06:18:58.404Z,18.70
2018-01-22T06:21:27.290Z,19.13
2018-01-22T06:23:56.129Z,19.53
2018-01-22T06:26:24.966Z,19.00
2018-01-22T06:28:53.890Z,18.83
2018-01-22T06:31:22.739Z,19.67
2018-01-22T06:33:51.583Z,18.63
2018-01-22T06:36:21.028Z,17.53
2018-01-22T06:38:49.877Z,17.40
2018-01-22T06:41:18.780Z,16.50
2018-01-22T06:43:47.651Z,17.60
2018-01-22T06:46:16.529Z,15.63
2018-01-22T06:48:46.128Z,16.07
2018-01-22T06:51:14.995Z,17.67
2018-01-22T06:53:43.878Z,15.93
2018-01-22T06:56:12.720Z,16.40
2018-01-22T06:58:42.605Z,15.73
2018-01-22T07:01:11.456Z,15.93
2018-01-22T07:03:40.299Z,15.57
2018-01-22T07:06:09.167Z,16.53
2018-01-22T07:08:39.437Z,17.80
2018-01-22T07:11:08.305Z,16.57
2018-01-22T07:13:38.037Z,17.93
2018-01-22T07:16:08.672Z,18.33
2018-01-22T07:18:37.528Z,17.23
2018-01-22T07:21:06.378Z,17.03
2018-01-22T07:23:35.231Z,17.60
2018-01-22T07:26:04.113Z,16.90
2018-01-22T07:28:33.030Z,16.57
2018-01-22T07:31:02.022Z,17.07
2018-01-22T07:33:30.887Z,17.60
2018-01-22T07:35:59.843Z,18.50
2018-01-22T07:38:28.683Z,15.43
2018-01-22T07:40:57.590Z,17.37
2018-01-22T07:43:26.455Z,17.70
2018-01-22T07:45:55.330Z,14.73
2018-01-22T07:48:24.184Z,14.57
2018-01-22T07:50:53.166Z,14.90
2018-01-22T07:53:23.370Z,14.80
2018-01-22T07:55:53.091Z,13.87
2018-01-22T07:58:21.943Z,14.43
2018-01-22T08:00:50.833Z,13.57
2018-01-22T08:03:20.644Z,12.80
2018-01-22T08:05:49.551Z,12.27
2018-01-22T08:08:18.407Z,11.87
2018-01-22T08:10:47.289Z,12.20
2018-01-22T08:13:16.161Z,11.47
2018-01-22T08:15:45.025Z,11.47
2018-01-22T08:18:13.919Z,12.27
2018-01-22T08:20:42.782Z,11.33
2018-01-22T08:23:11.624Z,11.63
2018-01-22T08:25:40.510Z,11.40
2018-01-22T08:28:09.340Z,11.63
2018-01-22T08:30:38.222Z,10.67
2018-01-22T08:33:07.093Z,10.63
2018-01-22T08:35:35.937Z,11.40
2018-01-22T08:38:05.623Z,9.90
2018-01-22T08:40:34.529Z,8.83
2018-01-22T08:43:03.401Z,9.00
2018-01-22T08:45:32.879Z,8.80
2018-01-22T08:48:01.762Z,8.37
2018-01-22T08:50:30.600Z,8.47
2018-01-22T08:52:59.439Z,9.07
2018-01-22T08:55:29.062Z,8.17
2018-01-22T08:57:57.944Z,8.17
2018-01-22T09:00:26.802Z,7.93
2018-01-22T09:02:55.662Z,8.60
2018-01-22T09:05:24.519Z,7.43
2018-01-22T09:07:53.448Z,7.83
2018-01-22T09:10:22.281Z,7.27
2018-01-22T09:12:51.108Z,6.80
2018-01-22T09:15:19.984Z,6.70
2018-01-22T09:17:48.892Z,7.03
2018-01-22T09:20:17.730Z,6.80
2018-01-22T09:22:46.561Z,6.00
2018-01-22T09:25:15.425Z,6.57
2018-01-22T09:27:44.273Z,6.67
2018-01-22T09:30:13.110Z,6.70
2018-01-22T09:32:42.032Z,6.20
2018-01-22T09:35:10.893Z,6.73
2018-01-22T09:37:40.107Z,7.07
2018-01-22T09:40:09.592Z,6.37
2018-01-22T09:42:38.552Z,6.10
2018-01-22T09:45:07.523Z,6.50
2018-01-22T09:47:36.395Z,6.40
2018-01-22T09:50:05.262Z,5.87
2018-01-22T09:52:34.520Z,6.57
2018-01-22T09:55:03.604Z,6.07
2018-01-22T09:57:32.500Z,5.87
2018-01-22T10:00:02.268Z,6.67
2018-01-22T10:02:31.237Z,5.90
2018-01-22T10:05:00.106Z,6.27
2018-01-22T10:07:28.938Z,5.60
2018-01-22T10:09:57.802Z,5.87
2018-01-22T10:12:26.642Z,5.53
2018-01-22T10:14:55.498Z,5.83
2018-01-22T10:17:24.997Z,5.20
2018-01-22T10:19:54.666Z,5.50
2018-01-22T10:22:23.496Z,5.53
2018-01-22T10:24:52.506Z,6.07
2018-01-22T10:27:21.651Z,8.03
2018-01-22T10:29:50.510Z,10.47
2018-01-22T10:32:19.408Z,19.53
2018-01-22T10:34:49.586Z,6.13
2018-01-22T10:37:18.444Z,6.00
2018-01-22T10:39:47.392Z,5.90
2018-01-22T10:42:16.268Z,6.07
2018-01-22T10:44:45.112Z,6.10
2018-01-22T10:47:14.677Z,7.33
2018-01-22T10:49:43.910Z,5.10
2018-01-22T10:52:12.748Z,6.30
2018-01-22T10:54:41.611Z,6.70
2018-01-22T10:57:10.718Z,5.97
2018-01-22T10:59:39.882Z,5.93
2018-01-22T11:02:08.884Z,5.90
2018-01-22T11:04:37.733Z,5.93
2018-01-22T11:07:06.573Z,5.60
2018-01-22T11:09:35.444Z,5.83
2018-01-22T11:12:04.306Z,5.30
2018-01-22T11:14:33.158Z,5.20
2018-01-22T11:17:04.256Z,6.10
2018-01-22T11:19:33.148Z,5.80
2018-01-22T11:22:03.557Z,5.97
2018-01-22T11:24:32.404Z,5.63
2018-01-22T11:27:01.386Z,5.37
2018-01-22T11:29:30.288Z,5.33
2018-01-22T11:31:59.740Z,6.10
2018-01-22T11:34:28.604Z,5.50
2018-01-22T11:36:57.878Z,5.80
2018-01-22T11:39:27.154Z,6.47
2018-01-22T11:41:56.116Z,8.50
2018-01-22T11:44:25.284Z,5.47
2018-01-22T11:49:29.400Z,4.87
2018-01-22T11:51:58.254Z,5.20
2018-01-22T11:54:27.088Z,4.50
2018-01-22T11:56:56.108Z,5.00
2018-01-22T11:59:25.073Z,5.30
2018-01-22T12:01:53.960Z,4.60
2018-01-22T12:04:22.814Z,4.70
2018-01-22T12:06:51.758Z,4.87
2018-01-22T12:09:20.605Z,5.37
2018-01-22T12:11:49.506Z,4.93
2018-01-22T12:14:18.392Z,4.90
2018-01-22T12:16:47.251Z,5.90
2018-01-22T12:19:16.134Z,4.70
2018-01-22T12:21:45.190Z,5.30
2018-01-22T12:24:14.494Z,5.10
2018-01-22T12:26:43.726Z,5.03
2018-01-22T12:29:13.306Z,4.50
2018-01-22T12:31:42.216Z,4.40
2018-01-22T12:34:11.147Z,4.90
2018-01-22T12:36:39.997Z,4.60
2018-01-22T12:39:08.871Z,4.23
2018-01-22T12:41:37.938Z,5.20
2018-01-22T12:44:07.112Z,4.90
2018-01-22T12:46:36.028Z,3.90
2018-01-22T12:49:05.032Z,4.83
2018-01-22T12:51:33.936Z,5.13
2018-01-22T12:54:02.788Z,4.30
2018-01-22T12:56:31.640Z,4.50
2018-01-22T12:59:00.946Z,4.60
2018-01-22T13:01:29.815Z,4.83
2018-01-22T13:03:59.640Z,3.80
2018-01-22T13:06:29.306Z,3.83
2018-01-22T13:08:58.144Z,4.30
2018-01-22T13:11:27.065Z,3.60
2018-01-22T13:13:55.984Z,3.70
2018-01-22T13:16:24.820Z,4.03
2018-01-22T13:18:53.926Z,3.87
2018-01-22T13:21:22.796Z,5.57
2018-01-22T13:23:51.632Z,3.73
2018-01-22T13:26:20.534Z,4.07
2018-01-22T13:28:49.410Z,3.97
2018-01-22T13:31:18.418Z,3.80
2018-01-22T13:33:47.318Z,3.60
2018-01-22T13:36:16.284Z,4.07
2018-01-22T13:38:45.168Z,3.43
2018-01-22T13:41:14.860Z,4.13
2018-01-22T13:43:43.698Z,3.93
2018-01-22T13:46:12.572Z,4.17
2018-01-22T13:48:41.476Z,4.10
2018-01-22T13:51:10.376Z,4.00
2018-01-22T13:53:39.240Z,4.10
2018-01-22T13:56:08.638Z,3.43
2018-01-22T13:58:37.602Z,3.90
2018-01-22T14:01:06.570Z,4.63
2018-01-22T14:03:35.511Z,3.67
2018-01-22T14:06:04.449Z,3.77
2018-01-22T14:08:33.666Z,3.50
2018-01-22T14:11:02.606Z,4.00
2018-01-22T14:13:31.635Z,5.23
2018-01-22T14:16:00.727Z,4.60
2018-01-22T14:18:29.630Z,4.93
2018-01-22T14:20:59.466Z,4.63
2018-01-22T14:23:28.306Z,4.40
2018-01-22T14:25:57.173Z,3.97
2018-01-22T14:28:26.024Z,3.80
2018-01-22T14:30:54.952Z,4.00
2018-01-22T14:33:23.959Z,3.70
2018-01-22T14:35:53.255Z,4.17
2018-01-22T14:38:22.198Z,3.97
2018-01-22T14:40:51.134Z,3.40
2018-01-22T14:43:22.374Z,3.93
2018-01-22T14:45:51.313Z,4.43
2018-01-22T14:48:20.140Z,3.77
2018-01-22T14:50:48.986Z,4.10
2018-01-22T14:53:17.881Z,3.60
2018-01-22T14:55:46.752Z,3.77
2018-01-22T14:58:15.619Z,3.87
2018-01-22T15:00:44.491Z,3.70
2018-01-22T15:03:14.007Z,3.60
2018-01-22T15:05:43.728Z,3.97
2018-01-22T15:08:16.195Z,3.50
2018-01-22T15:10:45.458Z,4.07
2018-01-22T15:13:18.005Z,3.40
2018-01-22T15:15:48.729Z,4.00
2018-01-22T15:21:07.815Z,4.07
2018-01-22T15:23:37.186Z,4.10
2018-01-22T15:26:06.680Z,3.33
2018-01-22T15:28:36.366Z,3.60
2018-01-22T15:31:05.297Z,4.00
2018-01-22T15:33:36.353Z,3.73
2018-01-22T15:36:06.060Z,4.17
2018-01-22T15:38:34.901Z,3.63
2018-01-22T15:41:03.763Z,3.60
2018-01-22T15:43:32.660Z,3.97
2018-01-22T15:46:01.557Z,4.17
2018-01-22T15:48:30.492Z,4.10
2018-01-22T15:50:59.337Z,3.90
2018-01-22T15:53:28.191Z,4.10
2018-01-22T15:55:57.066Z,3.97
2018-01-22T15:58:25.942Z,4.03
2018-01-22T16:00:54.787Z,4.17
2018-01-22T16:03:23.643Z,4.47
2018-01-22T16:05:52.923Z,3.70
2018-01-22T16:08:21.802Z,4.30
2018-01-22T16:10:50.644Z,4.23
2018-01-22T16:13:19.515Z,4.35
2018-01-22T16:15:48.430Z,4.50
2018-01-22T16:18:17.439Z,4.23
2018-01-22T16:20:46.306Z,4.50
2018-01-22T16:23:15.174Z,4.50
2018-01-22T16:25:44.446Z,3.80
2018-01-22T16:28:13.319Z,4.33
2018-01-22T16:30:43.182Z,4.60
2018-01-22T16:33:12.371Z,4.50
2018-01-22T16:35:41.232Z,3.93
2018-01-22T16:38:10.100Z,4.47
2018-01-22T16:40:39.011Z,4.40
2018-01-22T16:43:07.848Z,4.20
2018-01-22T16:45:36.694Z,4.30
2018-01-22T16:48:05.809Z,4.37
2018-01-22T16:50:35.107Z,4.30
2018-01-22T16:53:04.471Z,4.30
2018-01-22T16:55:33.487Z,5.20
2018-01-22T16:58:02.359Z,4.13
2018-01-22T17:00:31.223Z,4.53
2018-01-22T17:03:01.043Z,4.63
2018-01-22T17:05:29.911Z,4.80
2018-01-22T17:07:59.401Z,4.20
2018-01-22T17:10:28.869Z,3.93
2018-01-22T17:12:57.720Z,4.33
2018-01-22T17:15:26.559Z,4.60
2018-01-22T17:17:55.478Z,4.07
2018-01-22T17:20:24.319Z,4.23
2018-01-22T17:22:53.743Z,4.27
2018-01-22T17:25:22.615Z,4.63
2018-01-22T17:27:58.721Z,4.57
2018-01-22T17:35:42.239Z,4.17
2018-01-22T17:43:43.243Z,4.00
2018-01-22T17:46:12.425Z,4.27
2018-01-22T17:48:41.695Z,3.53
2018-01-22T17:51:11.466Z,3.73
2018-01-22T17:53:40.386Z,4.20
2018-01-22T17:56:09.581Z,4.10
2018-01-22T17:58:39.439Z,4.00
2018-01-22T18:01:08.311Z,3.93
2018-01-22T18:03:37.393Z,3.57
2018-01-22T18:06:06.246Z,4.30
2018-01-22T18:08:35.353Z,3.57
2018-01-22T18:11:04.233Z,3.87
2018-01-22T18:13:33.094Z,3.73
2018-01-22T18:16:02.065Z,4.23
2018-01-22T18:18:30.903Z,3.90
2018-01-22T18:20:59.739Z,4.43
2018-01-22T18:23:28.855Z,4.28
2018-01-22T18:25:57.711Z,4.13
2018-01-22T18:28:26.559Z,3.93
2018-01-22T18:30:55.450Z,4.67
2018-01-22T18:33:24.285Z,5.05
2018-01-22T18:35:53.503Z,4.40
2018-01-22T18:38:22.497Z,6.33
2018-01-22T18:40:51.333Z,5.03
2018-01-22T18:43:20.173Z,4.27
2018-01-22T18:45:49.899Z,5.20
2018-01-22T18:48:18.747Z,4.10
2018-01-22T18:50:47.623Z,4.27
2018-01-22T18:53:16.778Z,4.90
2018-01-22T18:55:45.621Z,5.13
2018-01-22T18:58:15.321Z,8.70
2018-01-22T19:00:44.177Z,5.07
2018-01-22T19:03:13.539Z,4.60
2018-01-22T19:05:42.433Z,5.17
2018-01-22T19:08:11.381Z,5.67
2018-01-22T19:10:40.332Z,5.73
2018-01-22T19:13:10.841Z,5.20
2018-01-22T19:15:40.012Z,5.20
2018-01-22T19:18:09.355Z,5.47
2018-01-22T19:20:39.090Z,6.17
2018-01-22T19:23:08.302Z,6.40
2018-01-22T19:25:37.303Z,5.20
2018-01-22T19:28:06.267Z,5.50
2018-01-22T19:30:35.116Z,5.33
2018-01-22T19:33:03.955Z,5.00
2018-01-22T19:35:34.336Z,4.93
2018-01-22T19:38:03.197Z,4.40
2018-01-22T19:40:32.039Z,4.87
2018-01-22T19:43:01.569Z,4.97
2018-01-22T19:45:30.975Z,4.70
2018-01-22T19:47:59.867Z,5.20
2018-01-22T19:50:28.739Z,4.37
2018-01-22T19:52:57.593Z,5.27
2018-01-22T19:55:26.492Z,4.97
2018-01-22T19:57:55.332Z,4.60
2018-01-22T20:00:24.183Z,4.97
2018-01-22T20:02:53.027Z,5.10
2018-01-22T20:05:22.025Z,5.13
2018-01-22T20:07:50.869Z,5.50
2018-01-22T20:10:19.723Z,5.20
2018-01-22T20:12:48.637Z,4.60
2018-01-22T20:15:17.584Z,4.27
2018-01-22T20:17:46.843Z,4.77
2018-01-22T20:20:16.209Z,5.03
2018-01-22T20:22:45.109Z,5.63
2018-01-22T20:25:13.989Z,5.70
2018-01-22T20:27:42.867Z,5.70
2018-01-22T20:30:12.111Z,5.10
2018-01-22T20:32:41.079Z,5.10
2018-01-22T20:35:10.683Z,6.03
2018-01-22T20:37:39.805Z,4.50
2018-01-22T20:40:08.763Z,5.40
2018-01-22T20:42:37.625Z,5.90
2018-01-22T20:45:06.493Z,5.07
2018-01-22T20:47:35.361Z,6.83
2018-01-22T20:50:05.018Z,6.37
2018-01-22T20:52:33.949Z,6.40
2018-01-22T20:55:02.911Z,5.33
2018-01-22T20:57:32.573Z,5.70
2018-01-22T21:00:01.996Z,4.97
2018-01-22T21:02:30.845Z,5.20
2018-01-22T21:05:00.034Z,5.07
2018-01-22T21:07:29.440Z,5.53
2018-01-22T21:09:58.343Z,4.67
2018-01-22T21:12:27.887Z,5.57
2018-01-22T21:14:56.797Z,4.60
2018-01-22T21:17:25.639Z,4.93
2018-01-22T21:19:57.457Z,5.13
2018-01-22T21:22:26.460Z,4.60
2018-01-22T21:24:55.333Z,5.07
2018-01-22T21:27:24.249Z,5.23
2018-01-22T21:29:53.091Z,4.73
2018-01-22T21:32:21.991Z,6.00
2018-01-22T21:34:55.087Z,5.37
2018-01-22T21:37:24.415Z,4.80
2018-01-22T21:39:53.347Z,5.43
2018-01-22T21:42:22.209Z,6.20
2018-01-22T21:44:51.061Z,7.07
2018-01-22T21:47:20.089Z,6.63
2018-01-22T21:49:48.949Z,6.43
2018-01-22T21:52:22.598Z,6.30
2018-01-22T21:54:51.467Z,7.13
2018-01-22T21:57:21.003Z,6.43
2018-01-22T21:59:49.843Z,6.37
2018-01-22T22:02:20.694Z,6.43
2018-01-22T22:04:49.599Z,6.47
2018-01-22T22:07:18.431Z,6.63
2018-01-22T22:09:47.281Z,6.07
2018-01-22T22:12:17.000Z,5.73
2018-01-22T22:14:46.511Z,6.23
2018-01-22T22:17:15.426Z,6.07
2018-01-22T22:19:44.294Z,6.67
2018-01-22T22:22:13.641Z,6.03
2018-01-22T22:24:42.497Z,6.13
2018-01-22T22:27:11.359Z,6.33
2018-01-22T22:29:41.067Z,5.90
2018-01-22T22:32:11.091Z,6.20
2018-01-22T22:34:39.963Z,6.53
2018-01-22T22:37:09.247Z,6.40
2018-01-22T22:39:38.451Z,6.10
2018-01-22T22:42:07.375Z,6.40
2018-01-22T22:44:36.229Z,6.60
2018-01-22T22:47:05.079Z,6.43
2018-01-22T22:49:36.391Z,6.80
2018-01-22T22:52:06.095Z,7.07
2018-01-22T22:54:34.937Z,6.50
2018-01-22T22:57:03.803Z,5.93
2018-01-22T22:59:33.643Z,6.40
2018-01-22T23:02:02.527Z,6.73
2018-01-22T23:04:32.329Z,7.57
2018-01-22T23:07:01.177Z,7.13
2018-01-22T23:09:32.853Z,7.20
2018-01-22T23:12:01.755Z,6.87
2018-01-22T23:14:31.466Z,6.47
2018-01-22T23:17:00.323Z,6.40
2018-01-22T23:19:29.203Z,7.40
2018-01-22T23:21:58.063Z,7.40
2018-01-22T23:24:27.265Z,7.00
2018-01-22T23:26:56.136Z,7.47
2018-01-22T23:29:25.003Z,6.87
2018-01-22T23:31:53.939Z,7.23
2018-01-22T23:34:22.801Z,6.80
2018-01-22T23:36:51.659Z,7.00
2018-01-22T23:39:20.507Z,6.33
2018-01-22T23:41:49.395Z,6.70
2018-01-22T23:44:18.253Z,7.10
2018-01-22T23:46:47.087Z,7.43
2018-01-22T23:49:15.971Z,6.63
2018-01-22T23:51:44.903Z,6.43
2018-01-22T23:54:21.182Z,6.03
2018-01-22T23:56:50.015Z,6.40
2018-01-22T23:59:18.869Z,6.60
